sensor_id;sensor_type;location;lat;lon;timestamp;P1;durP1;ratioP1;P2;durP2;ratioP2
16075;SDS011;8142;48.242;11.644;2022-09-09T00:02:18;1.83;;;1.50;;
16075;SDS011;8142;48.242;11.644;2022-09-09T00:05:31;2.07;;;1.80;;
16075;SDS011;8142;48.242;11.644;2022-09-09T00:07:52;2.60;;;1.80;;
16075;SDS011;8142;48.242;11.644;2022-09-09T00:10:22;5.17;;;1.90;;
16075;SDS011;8142;48.242;11.644;2022-09-09T00:15:57;2.23;;;1.70;;
16075;SDS011;8142;48.242;11.644;2022-09-09T00:21:33;2.50;;;1.50;;
16075;SDS011;8142;48.242;11.644;2022-09-09T00:24:04;2.80;;;1.53;;
16075;SDS011;8142;48.242;11.644;2022-09-09T00:26:42;2.57;;;1.70;;
16075;SDS011;8142;48.242;11.644;2022-09-09T00:32:16;2.33;;;1.70;;
16075;SDS011;8142;48.242;11.644;2022-09-09T00:37:51;4.83;;;1.77;;
16075;SDS011;8142;48.242;11.644;2022-09-09T00:49:24;3.87;;;2.00;;
16075;SDS011;8142;48.242;11.644;2022-09-09T00:51:45;2.47;;;1.80;;
16075;SDS011;8142;48.242;11.644;2022-09-09T00:57:17;3.90;;;2.10;;
16075;SDS011;8142;48.242;11.644;2022-09-09T00:59:51;3.30;;;2.10;;
16075;SDS011;8142;48.242;11.644;2022-09-09T01:05:13;2.37;;;1.90;;
16075;SDS011;8142;48.242;11.644;2022-09-09T01:11:22;2.97;;;1.83;;
16075;SDS011;8142;48.242;11.644;2022-09-09T01:14:01;2.80;;;1.67;;
16075;SDS011;8142;48.242;11.644;2022-09-09T01:16:39;2.33;;;1.77;;
16075;SDS011;8142;48.242;11.644;2022-09-09T01:19:07;2.07;;;1.60;;
16075;SDS011;8142;48.242;11.644;2022-09-09T01:21:47;3.27;;;1.90;;
16075;SDS011;8142;48.242;11.644;2022-09-09T01:24:38;4.77;;;1.70;;
16075;SDS011;8142;48.242;11.644;2022-09-09T01:27:19;3.00;;;1.77;;
16075;SDS011;8142;48.242;11.644;2022-09-09T01:29:46;1.90;;;1.73;;
16075;SDS011;8142;48.242;11.644;2022-09-09T01:35:18;3.23;;;2.00;;
16075;SDS011;8142;48.242;11.644;2022-09-09T01:37:47;2.13;;;1.67;;
16075;SDS011;8142;48.242;11.644;2022-09-09T01:40:12;3.27;;;1.60;;
16075;SDS011;8142;48.242;11.644;2022-09-09T01:42:38;2.93;;;1.70;;
16075;SDS011;8142;48.242;11.644;2022-09-09T01:45:04;3.43;;;1.80;;
16075;SDS011;8142;48.242;11.644;2022-09-09T01:47:31;2.70;;;1.80;;
16075;SDS011;8142;48.242;11.644;2022-09-09T01:49:57;3.87;;;2.00;;
16075;SDS011;8142;48.242;11.644;2022-09-09T01:52:24;4.03;;;1.80;;
16075;SDS011;8142;48.242;11.644;2022-09-09T01:54:50;3.50;;;1.90;;
16075;SDS011;8142;48.242;11.644;2022-09-09T01:57:27;3.20;;;2.30;;
16075;SDS011;8142;48.242;11.644;2022-09-09T02:05:40;2.43;;;1.93;;
16075;SDS011;8142;48.242;11.644;2022-09-09T02:08:12;7.23;;;2.13;;
16075;SDS011;8142;48.242;11.644;2022-09-09T02:13:32;6.03;;;2.10;;
16075;SDS011;8142;48.242;11.644;2022-09-09T02:21:17;3.40;;;1.70;;
16075;SDS011;8142;48.242;11.644;2022-09-09T02:23:43;3.67;;;1.80;;
16075;SDS011;8142;48.242;11.644;2022-09-09T02:26:12;2.23;;;1.40;;
16075;SDS011;8142;48.242;11.644;2022-09-09T02:28:44;4.00;;;2.00;;
16075;SDS011;8142;48.242;11.644;2022-09-09T02:31:13;3.77;;;1.80;;
16075;SDS011;8142;48.242;11.644;2022-09-09T02:33:43;1.70;;;1.60;;
16075;SDS011;8142;48.242;11.644;2022-09-09T02:36:13;3.80;;;1.80;;
16075;SDS011;8142;48.242;11.644;2022-09-09T02:38:42;3.67;;;1.40;;
16075;SDS011;8142;48.242;11.644;2022-09-09T02:41:19;2.63;;;1.60;;
16075;SDS011;8142;48.242;11.644;2022-09-09T02:43:48;1.97;;;1.47;;
16075;SDS011;8142;48.242;11.644;2022-09-09T02:57:17;3.50;;;1.70;;
16075;SDS011;8142;48.242;11.644;2022-09-09T02:59:47;2.47;;;1.60;;
16075;SDS011;8142;48.242;11.644;2022-09-09T03:02:15;2.50;;;1.70;;
16075;SDS011;8142;48.242;11.644;2022-09-09T03:04:41;4.40;;;1.73;;
16075;SDS011;8142;48.242;11.644;2022-09-09T03:07:09;3.33;;;1.50;;
16075;SDS011;8142;48.242;11.644;2022-09-09T03:09:36;2.63;;;1.60;;
16075;SDS011;8142;48.242;11.644;2022-09-09T03:12:02;4.90;;;1.80;;
16075;SDS011;8142;48.242;11.644;2022-09-09T03:14:29;2.90;;;1.63;;
16075;SDS011;8142;48.242;11.644;2022-09-09T03:16:56;3.03;;;1.40;;
16075;SDS011;8142;48.242;11.644;2022-09-09T03:19:26;2.07;;;1.50;;
16075;SDS011;8142;48.242;11.644;2022-09-09T03:21:53;1.60;;;1.47;;
16075;SDS011;8142;48.242;11.644;2022-09-09T03:24:19;3.67;;;1.40;;
16075;SDS011;8142;48.242;11.644;2022-09-09T03:26:45;2.33;;;1.50;;
16075;SDS011;8142;48.242;11.644;2022-09-09T03:29:12;4.00;;;1.70;;
16075;SDS011;8142;48.242;11.644;2022-09-09T03:31:38;1.60;;;1.50;;
16075;SDS011;8142;48.242;11.644;2022-09-09T03:34:04;1.67;;;1.57;;
16075;SDS011;8142;48.242;11.644;2022-09-09T03:36:30;1.60;;;1.50;;
16075;SDS011;8142;48.242;11.644;2022-09-09T03:38:57;1.90;;;1.70;;
16075;SDS011;8142;48.242;11.644;2022-09-09T03:41:23;3.17;;;2.00;;
16075;SDS011;8142;48.242;11.644;2022-09-09T03:43:52;2.03;;;1.80;;
16075;SDS011;8142;48.242;11.644;2022-09-09T03:46:23;3.10;;;1.90;;
16075;SDS011;8142;48.242;11.644;2022-09-09T03:48:50;1.97;;;1.70;;
16075;SDS011;8142;48.242;11.644;2022-09-09T03:51:17;3.27;;;2.20;;
16075;SDS011;8142;48.242;11.644;2022-09-09T03:53:44;2.13;;;1.70;;
16075;SDS011;8142;48.242;11.644;2022-09-09T03:56:10;2.93;;;1.60;;
16075;SDS011;8142;48.242;11.644;2022-09-09T03:58:36;2.17;;;1.90;;
16075;SDS011;8142;48.242;11.644;2022-09-09T04:01:09;3.17;;;2.00;;
16075;SDS011;8142;48.242;11.644;2022-09-09T04:03:41;3.87;;;2.00;;
16075;SDS011;8142;48.242;11.644;2022-09-09T04:06:08;5.63;;;1.80;;
16075;SDS011;8142;48.242;11.644;2022-09-09T04:08:36;4.17;;;1.70;;
16075;SDS011;8142;48.242;11.644;2022-09-09T04:11:03;2.37;;;1.77;;
16075;SDS011;8142;48.242;11.644;2022-09-09T04:13:32;2.17;;;1.63;;
16075;SDS011;8142;48.242;11.644;2022-09-09T04:15:59;2.43;;;1.60;;
16075;SDS011;8142;48.242;11.644;2022-09-09T04:18:27;3.20;;;1.63;;
16075;SDS011;8142;48.242;11.644;2022-09-09T04:20:53;2.67;;;1.60;;
16075;SDS011;8142;48.242;11.644;2022-09-09T04:23:20;3.33;;;1.47;;
16075;SDS011;8142;48.242;11.644;2022-09-09T04:25:46;1.97;;;1.50;;
16075;SDS011;8142;48.242;11.644;2022-09-09T04:28:15;3.17;;;1.53;;
16075;SDS011;8142;48.242;11.644;2022-09-09T04:30:42;2.73;;;1.50;;
16075;SDS011;8142;48.242;11.644;2022-09-09T04:33:09;1.60;;;1.50;;
16075;SDS011;8142;48.242;11.644;2022-09-09T04:35:35;3.13;;;1.50;;
16075;SDS011;8142;48.242;11.644;2022-09-09T04:38:02;2.60;;;1.60;;
16075;SDS011;8142;48.242;11.644;2022-09-09T04:40:29;2.50;;;1.67;;
16075;SDS011;8142;48.242;11.644;2022-09-09T04:42:57;2.13;;;1.93;;
16075;SDS011;8142;48.242;11.644;2022-09-09T04:45:23;3.40;;;1.50;;
16075;SDS011;8142;48.242;11.644;2022-09-09T04:47:50;4.13;;;1.53;;
16075;SDS011;8142;48.242;11.644;2022-09-09T04:50:16;2.00;;;1.50;;
16075;SDS011;8142;48.242;11.644;2022-09-09T04:52:42;2.57;;;1.47;;
16075;SDS011;8142;48.242;11.644;2022-09-09T04:55:08;2.20;;;1.60;;
16075;SDS011;8142;48.242;11.644;2022-09-09T04:57:34;2.17;;;1.50;;
16075;SDS011;8142;48.242;11.644;2022-09-09T05:00:00;2.67;;;1.50;;
16075;SDS011;8142;48.242;11.644;2022-09-09T05:02:28;2.23;;;1.70;;
16075;SDS011;8142;48.242;11.644;2022-09-09T05:04:55;2.37;;;1.50;;
16075;SDS011;8142;48.242;11.644;2022-09-09T05:07:21;8.33;;;1.70;;
16075;SDS011;8142;48.242;11.644;2022-09-09T05:09:47;2.80;;;1.43;;
16075;SDS011;8142;48.242;11.644;2022-09-09T05:12:15;2.10;;;1.60;;
16075;SDS011;8142;48.242;11.644;2022-09-09T05:14:42;4.00;;;1.50;;
16075;SDS011;8142;48.242;11.644;2022-09-09T05:17:08;1.83;;;1.43;;
16075;SDS011;8142;48.242;11.644;2022-09-09T05:19:35;2.40;;;1.73;;
16075;SDS011;8142;48.242;11.644;2022-09-09T05:22:00;2.00;;;1.80;;
16075;SDS011;8142;48.242;11.644;2022-09-09T05:24:26;2.70;;;1.60;;
16075;SDS011;8142;48.242;11.644;2022-09-09T05:26:52;2.80;;;1.70;;
16075;SDS011;8142;48.242;11.644;2022-09-09T05:29:18;3.00;;;1.80;;
16075;SDS011;8142;48.242;11.644;2022-09-09T05:31:44;2.50;;;1.50;;
16075;SDS011;8142;48.242;11.644;2022-09-09T05:34:12;2.70;;;1.87;;
16075;SDS011;8142;48.242;11.644;2022-09-09T05:36:38;3.13;;;1.70;;
16075;SDS011;8142;48.242;11.644;2022-09-09T05:39:04;2.60;;;1.80;;
16075;SDS011;8142;48.242;11.644;2022-09-09T05:41:29;3.07;;;1.60;;
16075;SDS011;8142;48.242;11.644;2022-09-09T05:43:57;2.40;;;1.43;;
16075;SDS011;8142;48.242;11.644;2022-09-09T05:46:24;1.47;;;1.37;;
16075;SDS011;8142;48.242;11.644;2022-09-09T05:48:50;1.80;;;1.47;;
16075;SDS011;8142;48.242;11.644;2022-09-09T05:51:17;3.20;;;1.67;;
16075;SDS011;8142;48.242;11.644;2022-09-09T05:53:47;2.60;;;1.60;;
16075;SDS011;8142;48.242;11.644;2022-09-09T05:56:15;4.20;;;1.70;;
16075;SDS011;8142;48.242;11.644;2022-09-09T05:58:45;2.00;;;1.53;;
16075;SDS011;8142;48.242;11.644;2022-09-09T06:01:15;3.50;;;1.53;;
16075;SDS011;8142;48.242;11.644;2022-09-09T06:03:43;1.93;;;1.63;;
16075;SDS011;8142;48.242;11.644;2022-09-09T06:06:12;3.23;;;1.70;;
16075;SDS011;8142;48.242;11.644;2022-09-09T06:08:41;4.40;;;1.60;;
16075;SDS011;8142;48.242;11.644;2022-09-09T06:11:13;2.50;;;1.50;;
16075;SDS011;8142;48.242;11.644;2022-09-09T06:13:41;1.93;;;1.70;;
16075;SDS011;8142;48.242;11.644;2022-09-09T06:16:08;2.00;;;1.60;;
16075;SDS011;8142;48.242;11.644;2022-09-09T06:18:36;1.70;;;1.60;;
16075;SDS011;8142;48.242;11.644;2022-09-09T06:21:04;1.77;;;1.60;;
16075;SDS011;8142;48.242;11.644;2022-09-09T06:23:32;2.60;;;1.53;;
16075;SDS011;8142;48.242;11.644;2022-09-09T06:26:07;1.93;;;1.40;;
16075;SDS011;8142;48.242;11.644;2022-09-09T06:28:36;2.63;;;1.30;;
16075;SDS011;8142;48.242;11.644;2022-09-09T06:31:03;1.93;;;1.50;;
16075;SDS011;8142;48.242;11.644;2022-09-09T06:33:31;1.60;;;1.50;;
16075;SDS011;8142;48.242;11.644;2022-09-09T06:36:00;2.37;;;1.73;;
16075;SDS011;8142;48.242;11.644;2022-09-09T06:38:29;2.37;;;1.60;;
16075;SDS011;8142;48.242;11.644;2022-09-09T06:40:55;3.10;;;1.60;;
16075;SDS011;8142;48.242;11.644;2022-09-09T06:43:23;3.80;;;1.73;;
16075;SDS011;8142;48.242;11.644;2022-09-09T06:46:01;4.33;;;1.70;;
16075;SDS011;8142;48.242;11.644;2022-09-09T06:48:28;4.60;;;1.90;;
16075;SDS011;8142;48.242;11.644;2022-09-09T06:51:04;4.67;;;1.70;;
16075;SDS011;8142;48.242;11.644;2022-09-09T06:53:49;1.60;;;1.50;;
16075;SDS011;8142;48.242;11.644;2022-09-09T06:58:42;1.57;;;1.47;;
16075;SDS011;8142;48.242;11.644;2022-09-09T07:01:10;2.13;;;1.40;;
16075;SDS011;8142;48.242;11.644;2022-09-09T07:03:40;1.77;;;1.30;;
16075;SDS011;8142;48.242;11.644;2022-09-09T07:06:08;2.03;;;1.30;;
16075;SDS011;8142;48.242;11.644;2022-09-09T07:08:42;2.00;;;1.40;;
16075;SDS011;8142;48.242;11.644;2022-09-09T07:11:09;1.50;;;1.40;;
16075;SDS011;8142;48.242;11.644;2022-09-09T07:13:36;2.23;;;1.40;;
16075;SDS011;8142;48.242;11.644;2022-09-09T07:16:13;1.30;;;1.20;;
16075;SDS011;8142;48.242;11.644;2022-09-09T07:18:40;1.80;;;1.20;;
16075;SDS011;8142;48.242;11.644;2022-09-09T07:21:07;1.50;;;1.40;;
16075;SDS011;8142;48.242;11.644;2022-09-09T07:23:34;4.73;;;2.03;;
16075;SDS011;8142;48.242;11.644;2022-09-09T07:26:07;3.97;;;2.00;;
16075;SDS011;8142;48.242;11.644;2022-09-09T07:28:41;6.73;;;2.10;;
16075;SDS011;8142;48.242;11.644;2022-09-09T07:31:21;5.60;;;2.30;;
16075;SDS011;8142;48.242;11.644;2022-09-09T07:33:52;3.97;;;2.20;;
16075;SDS011;8142;48.242;11.644;2022-09-09T07:36:22;5.67;;;2.10;;
16075;SDS011;8142;48.242;11.644;2022-09-09T07:38:53;5.53;;;2.40;;
16075;SDS011;8142;48.242;11.644;2022-09-09T07:41:27;2.50;;;2.20;;
16075;SDS011;8142;48.242;11.644;2022-09-09T07:43:57;5.10;;;2.10;;
16075;SDS011;8142;48.242;11.644;2022-09-09T07:46:24;3.03;;;1.93;;
16075;SDS011;8142;48.242;11.644;2022-09-09T07:48:52;4.67;;;1.90;;
16075;SDS011;8142;48.242;11.644;2022-09-09T07:51:23;2.60;;;1.80;;
16075;SDS011;8142;48.242;11.644;2022-09-09T07:53:52;3.20;;;1.80;;
16075;SDS011;8142;48.242;11.644;2022-09-09T07:56:20;4.63;;;2.00;;
16075;SDS011;8142;48.242;11.644;2022-09-09T07:58:50;2.37;;;1.67;;
16075;SDS011;8142;48.242;11.644;2022-09-09T08:01:31;2.87;;;1.80;;
16075;SDS011;8142;48.242;11.644;2022-09-09T08:04:02;3.30;;;2.00;;
16075;SDS011;8142;48.242;11.644;2022-09-09T08:06:31;5.30;;;2.07;;
16075;SDS011;8142;48.242;11.644;2022-09-09T08:08:59;2.93;;;2.00;;
16075;SDS011;8142;48.242;11.644;2022-09-09T08:11:26;2.93;;;2.10;;
16075;SDS011;8142;48.242;11.644;2022-09-09T08:13:54;1.97;;;1.77;;
16075;SDS011;8142;48.242;11.644;2022-09-09T08:16:21;2.20;;;1.80;;
16075;SDS011;8142;48.242;11.644;2022-09-09T08:18:49;1.83;;;1.73;;
16075;SDS011;8142;48.242;11.644;2022-09-09T08:21:20;2.23;;;1.80;;
16075;SDS011;8142;48.242;11.644;2022-09-09T08:23:49;3.47;;;1.73;;
16075;SDS011;8142;48.242;11.644;2022-09-09T08:26:18;2.57;;;1.90;;
16075;SDS011;8142;48.242;11.644;2022-09-09T08:28:49;5.23;;;2.27;;
16075;SDS011;8142;48.242;11.644;2022-09-09T08:31:19;6.67;;;2.20;;
16075;SDS011;8142;48.242;11.644;2022-09-09T08:33:46;3.73;;;2.03;;
16075;SDS011;8142;48.242;11.644;2022-09-09T08:36:14;4.70;;;2.00;;
16075;SDS011;8142;48.242;11.644;2022-09-09T08:38:42;5.20;;;2.50;;
16075;SDS011;8142;48.242;11.644;2022-09-09T08:47:21;2.90;;;2.10;;
16075;SDS011;8142;48.242;11.644;2022-09-09T08:56:08;4.57;;;2.23;;
16075;SDS011;8142;48.242;11.644;2022-09-09T09:00:45;2.90;;;1.90;;
16075;SDS011;8142;48.242;11.644;2022-09-09T09:03:30;4.87;;;2.20;;
16075;SDS011;8142;48.242;11.644;2022-09-09T09:06:26;2.73;;;1.80;;
16075;SDS011;8142;48.242;11.644;2022-09-09T09:11:39;2.30;;;1.70;;
16075;SDS011;8142;48.242;11.644;2022-09-09T09:14:17;3.60;;;1.90;;
16075;SDS011;8142;48.242;11.644;2022-09-09T09:19:39;4.27;;;2.50;;
16075;SDS011;8142;48.242;11.644;2022-09-09T09:22:20;3.30;;;2.13;;
16075;SDS011;8142;48.242;11.644;2022-09-09T09:24:51;4.20;;;2.03;;
16075;SDS011;8142;48.242;11.644;2022-09-09T09:27:25;4.87;;;2.17;;
16075;SDS011;8142;48.242;11.644;2022-09-09T09:29:56;3.10;;;2.30;;
16075;SDS011;8142;48.242;11.644;2022-09-09T09:32:30;4.87;;;2.47;;
16075;SDS011;8142;48.242;11.644;2022-09-09T09:35:00;3.60;;;2.13;;
16075;SDS011;8142;48.242;11.644;2022-09-09T09:37:32;3.03;;;2.17;;
16075;SDS011;8142;48.242;11.644;2022-09-09T09:42:35;2.23;;;2.03;;
16075;SDS011;8142;48.242;11.644;2022-09-09T09:45:16;2.40;;;2.00;;
16075;SDS011;8142;48.242;11.644;2022-09-09T09:47:59;3.77;;;1.90;;
16075;SDS011;8142;48.242;11.644;2022-09-09T09:50:27;3.20;;;2.30;;
16075;SDS011;8142;48.242;11.644;2022-09-09T09:52:58;2.77;;;1.80;;
16075;SDS011;8142;48.242;11.644;2022-09-09T09:55:26;3.33;;;1.70;;
16075;SDS011;8142;48.242;11.644;2022-09-09T09:58:00;3.90;;;1.70;;
16075;SDS011;8142;48.242;11.644;2022-09-09T10:00:28;3.73;;;1.90;;
16075;SDS011;8142;48.242;11.644;2022-09-09T10:02:54;2.87;;;1.57;;
16075;SDS011;8142;48.242;11.644;2022-09-09T10:05:22;2.03;;;1.27;;
16075;SDS011;8142;48.242;11.644;2022-09-09T10:18:47;2.10;;;1.80;;
16075;SDS011;8142;48.242;11.644;2022-09-09T10:21:30;4.07;;;1.93;;
16075;SDS011;8142;48.242;11.644;2022-09-09T10:34:43;4.10;;;1.80;;
16075;SDS011;8142;48.242;11.644;2022-09-09T10:42:45;1.87;;;1.50;;
16075;SDS011;8142;48.242;11.644;2022-09-09T10:45:18;1.70;;;1.60;;
16075;SDS011;8142;48.242;11.644;2022-09-09T10:48:02;1.87;;;1.50;;
16075;SDS011;8142;48.242;11.644;2022-09-09T10:50:46;4.20;;;1.80;;
16075;SDS011;8142;48.242;11.644;2022-09-09T10:56:09;1.67;;;1.57;;
16075;SDS011;8142;48.242;11.644;2022-09-09T10:58:51;2.97;;;1.63;;
16075;SDS011;8142;48.242;11.644;2022-09-09T11:01:22;5.20;;;1.60;;
16075;SDS011;8142;48.242;11.644;2022-09-09T11:04:06;3.70;;;1.73;;
16075;SDS011;8142;48.242;11.644;2022-09-09T11:06:57;2.93;;;1.80;;
16075;SDS011;8142;48.242;11.644;2022-09-09T11:09:30;3.23;;;1.50;;
16075;SDS011;8142;48.242;11.644;2022-09-09T11:12:01;2.90;;;1.30;;
16075;SDS011;8142;48.242;11.644;2022-09-09T11:16:56;3.47;;;1.50;;
16075;SDS011;8142;48.242;11.644;2022-09-09T11:19:33;2.40;;;1.40;;
16075;SDS011;8142;48.242;11.644;2022-09-09T11:22:01;2.47;;;1.67;;
16075;SDS011;8142;48.242;11.644;2022-09-09T11:24:35;1.63;;;1.40;;
16075;SDS011;8142;48.242;11.644;2022-09-09T11:27:09;2.90;;;1.20;;
16075;SDS011;8142;48.242;11.644;2022-09-09T11:38:16;1.53;;;1.00;;
16075;SDS011;8142;48.242;11.644;2022-09-09T11:40:58;2.57;;;1.07;;
16075;SDS011;8142;48.242;11.644;2022-09-09T11:43:42;2.70;;;1.23;;
16075;SDS011;8142;48.242;11.644;2022-09-09T11:46:10;1.17;;;1.00;;
16075;SDS011;8142;48.242;11.644;2022-09-09T11:48:42;1.90;;;1.10;;
16075;SDS011;8142;48.242;11.644;2022-09-09T11:53:52;1.77;;;1.33;;
16075;SDS011;8142;48.242;11.644;2022-09-09T11:59:24;2.23;;;0.90;;
16075;SDS011;8142;48.242;11.644;2022-09-09T12:04:29;2.00;;;1.20;;
16075;SDS011;8142;48.242;11.644;2022-09-09T12:09:40;0.93;;;0.80;;
16075;SDS011;8142;48.242;11.644;2022-09-09T12:17:41;1.33;;;0.90;;
16075;SDS011;8142;48.242;11.644;2022-09-09T12:20:16;1.90;;;1.00;;
16075;SDS011;8142;48.242;11.644;2022-09-09T12:28:22;2.00;;;0.90;;
16075;SDS011;8142;48.242;11.644;2022-09-09T12:33:43;0.97;;;0.80;;
16075;SDS011;8142;48.242;11.644;2022-09-09T12:36:22;1.83;;;0.90;;
16075;SDS011;8142;48.242;11.644;2022-09-09T12:38:55;1.97;;;1.00;;
16075;SDS011;8142;48.242;11.644;2022-09-09T12:41:26;1.20;;;0.90;;
16075;SDS011;8142;48.242;11.644;2022-09-09T12:44:05;0.90;;;0.87;;
16075;SDS011;8142;48.242;11.644;2022-09-09T12:46:43;1.60;;;0.97;;
16075;SDS011;8142;48.242;11.644;2022-09-09T12:52:12;1.57;;;1.00;;
16075;SDS011;8142;48.242;11.644;2022-09-09T12:54:49;1.13;;;0.90;;
16075;SDS011;8142;48.242;11.644;2022-09-09T12:57:19;1.10;;;0.93;;
16075;SDS011;8142;48.242;11.644;2022-09-09T12:59:47;1.60;;;0.87;;
16075;SDS011;8142;48.242;11.644;2022-09-09T13:02:17;3.17;;;1.10;;
16075;SDS011;8142;48.242;11.644;2022-09-09T13:04:48;0.90;;;0.80;;
16075;SDS011;8142;48.242;11.644;2022-09-09T13:07:16;0.60;;;0.60;;
16075;SDS011;8142;48.242;11.644;2022-09-09T13:09:43;0.90;;;0.90;;
16075;SDS011;8142;48.242;11.644;2022-09-09T13:12:12;3.20;;;1.00;;
16075;SDS011;8142;48.242;11.644;2022-09-09T13:14:44;3.10;;;0.77;;
16075;SDS011;8142;48.242;11.644;2022-09-09T13:17:26;1.50;;;1.00;;
16075;SDS011;8142;48.242;11.644;2022-09-09T13:19:54;2.10;;;0.87;;
16075;SDS011;8142;48.242;11.644;2022-09-09T13:22:27;1.57;;;0.83;;
16075;SDS011;8142;48.242;11.644;2022-09-09T13:27:38;1.93;;;0.83;;
16075;SDS011;8142;48.242;11.644;2022-09-09T13:30:21;1.90;;;0.80;;
16075;SDS011;8142;48.242;11.644;2022-09-09T13:33:05;1.20;;;0.87;;
16075;SDS011;8142;48.242;11.644;2022-09-09T13:35:31;3.13;;;1.10;;
16075;SDS011;8142;48.242;11.644;2022-09-09T13:37:58;1.10;;;1.00;;
16075;SDS011;8142;48.242;11.644;2022-09-09T13:40:32;1.30;;;0.73;;
16075;SDS011;8142;48.242;11.644;2022-09-09T13:42:59;1.27;;;1.10;;
16075;SDS011;8142;48.242;11.644;2022-09-09T13:45:27;2.03;;;0.80;;
16075;SDS011;8142;48.242;11.644;2022-09-09T13:47:53;2.53;;;1.00;;
16075;SDS011;8142;48.242;11.644;2022-09-09T13:50:21;1.03;;;0.80;;
16075;SDS011;8142;48.242;11.644;2022-09-09T13:52:50;1.67;;;0.97;;
16075;SDS011;8142;48.242;11.644;2022-09-09T13:55:18;1.17;;;0.70;;
16075;SDS011;8142;48.242;11.644;2022-09-09T13:57:50;0.77;;;0.70;;
16075;SDS011;8142;48.242;11.644;2022-09-09T14:00:22;2.80;;;0.90;;
16075;SDS011;8142;48.242;11.644;2022-09-09T14:02:49;1.90;;;0.83;;
16075;SDS011;8142;48.242;11.644;2022-09-09T14:05:15;1.00;;;0.83;;
16075;SDS011;8142;48.242;11.644;2022-09-09T14:07:44;1.37;;;0.90;;
16075;SDS011;8142;48.242;11.644;2022-09-09T14:10:11;1.87;;;1.00;;
16075;SDS011;8142;48.242;11.644;2022-09-09T14:12:37;1.53;;;0.90;;
16075;SDS011;8142;48.242;11.644;2022-09-09T14:15:04;0.80;;;0.80;;
16075;SDS011;8142;48.242;11.644;2022-09-09T14:17:31;0.83;;;0.80;;
16075;SDS011;8142;48.242;11.644;2022-09-09T14:19:57;1.10;;;0.60;;
16075;SDS011;8142;48.242;11.644;2022-09-09T14:22:23;1.43;;;0.63;;
16075;SDS011;8142;48.242;11.644;2022-09-09T14:24:50;2.00;;;0.63;;
16075;SDS011;8142;48.242;11.644;2022-09-09T14:27:17;1.30;;;0.90;;
16075;SDS011;8142;48.242;11.644;2022-09-09T14:29:44;1.93;;;0.93;;
16075;SDS011;8142;48.242;11.644;2022-09-09T14:32:10;0.83;;;0.80;;
16075;SDS011;8142;48.242;11.644;2022-09-09T14:34:37;5.17;;;1.00;;
16075;SDS011;8142;48.242;11.644;2022-09-09T14:37:03;1.40;;;0.80;;
16075;SDS011;8142;48.242;11.644;2022-09-09T14:39:29;1.33;;;0.90;;
16075;SDS011;8142;48.242;11.644;2022-09-09T14:41:55;1.53;;;0.80;;
16075;SDS011;8142;48.242;11.644;2022-09-09T14:44:21;1.30;;;0.80;;
16075;SDS011;8142;48.242;11.644;2022-09-09T14:46:47;3.23;;;0.67;;
16075;SDS011;8142;48.242;11.644;2022-09-09T14:49:15;0.97;;;0.80;;
16075;SDS011;8142;48.242;11.644;2022-09-09T14:51:41;1.57;;;0.90;;
16075;SDS011;8142;48.242;11.644;2022-09-09T14:54:07;0.80;;;0.63;;
16075;SDS011;8142;48.242;11.644;2022-09-09T14:56:33;0.70;;;0.60;;
16075;SDS011;8142;48.242;11.644;2022-09-09T14:59:00;1.93;;;0.70;;
16075;SDS011;8142;48.242;11.644;2022-09-09T15:01:27;1.93;;;1.07;;
16075;SDS011;8142;48.242;11.644;2022-09-09T15:03:55;1.27;;;0.80;;
16075;SDS011;8142;48.242;11.644;2022-09-09T15:06:23;1.37;;;0.80;;
16075;SDS011;8142;48.242;11.644;2022-09-09T15:08:51;1.07;;;0.70;;
16075;SDS011;8142;48.242;11.644;2022-09-09T15:11:18;2.67;;;0.93;;
16075;SDS011;8142;48.242;11.644;2022-09-09T15:13:45;1.00;;;0.60;;
16075;SDS011;8142;48.242;11.644;2022-09-09T15:16:16;1.43;;;0.80;;
16075;SDS011;8142;48.242;11.644;2022-09-09T15:18:43;1.90;;;0.70;;
16075;SDS011;8142;48.242;11.644;2022-09-09T15:21:18;1.63;;;0.90;;
16075;SDS011;8142;48.242;11.644;2022-09-09T15:23:45;1.53;;;0.70;;
16075;SDS011;8142;48.242;11.644;2022-09-09T15:26:12;1.07;;;0.83;;
16075;SDS011;8142;48.242;11.644;2022-09-09T15:28:41;1.00;;;0.60;;
16075;SDS011;8142;48.242;11.644;2022-09-09T15:31:12;1.00;;;0.80;;
16075;SDS011;8142;48.242;11.644;2022-09-09T15:33:51;1.33;;;0.80;;
16075;SDS011;8142;48.242;11.644;2022-09-09T15:36:35;2.20;;;0.90;;
16075;SDS011;8142;48.242;11.644;2022-09-09T15:39:04;0.60;;;0.60;;
16075;SDS011;8142;48.242;11.644;2022-09-09T15:41:31;1.70;;;0.90;;
16075;SDS011;8142;48.242;11.644;2022-09-09T15:43:58;1.23;;;0.70;;
16075;SDS011;8142;48.242;11.644;2022-09-09T15:46:25;0.90;;;0.80;;
16075;SDS011;8142;48.242;11.644;2022-09-09T15:48:54;2.10;;;0.87;;
16075;SDS011;8142;48.242;11.644;2022-09-09T15:51:23;2.17;;;0.80;;
16075;SDS011;8142;48.242;11.644;2022-09-09T15:53:54;1.83;;;0.90;;
16075;SDS011;8142;48.242;11.644;2022-09-09T15:56:21;1.47;;;1.10;;
16075;SDS011;8142;48.242;11.644;2022-09-09T15:58:47;2.33;;;0.90;;
16075;SDS011;8142;48.242;11.644;2022-09-09T16:01:13;2.43;;;1.00;;
16075;SDS011;8142;48.242;11.644;2022-09-09T16:03:42;3.83;;;1.00;;
16075;SDS011;8142;48.242;11.644;2022-09-09T16:06:10;2.00;;;0.83;;
16075;SDS011;8142;48.242;11.644;2022-09-09T16:08:38;3.33;;;1.00;;
16075;SDS011;8142;48.242;11.644;2022-09-09T16:11:06;2.00;;;0.80;;
16075;SDS011;8142;48.242;11.644;2022-09-09T16:13:37;2.50;;;0.77;;
16075;SDS011;8142;48.242;11.644;2022-09-09T16:16:04;0.67;;;0.60;;
16075;SDS011;8142;48.242;11.644;2022-09-09T16:18:35;3.63;;;0.90;;
16075;SDS011;8142;48.242;11.644;2022-09-09T16:21:03;2.40;;;0.70;;
16075;SDS011;8142;48.242;11.644;2022-09-09T16:23:33;1.63;;;0.60;;
16075;SDS011;8142;48.242;11.644;2022-09-09T16:26:00;1.03;;;0.50;;
16075;SDS011;8142;48.242;11.644;2022-09-09T16:28:26;1.53;;;0.80;;
16075;SDS011;8142;48.242;11.644;2022-09-09T16:30:53;1.00;;;0.90;;
16075;SDS011;8142;48.242;11.644;2022-09-09T16:33:19;2.97;;;1.00;;
16075;SDS011;8142;48.242;11.644;2022-09-09T16:35:45;1.60;;;0.70;;
16075;SDS011;8142;48.242;11.644;2022-09-09T16:38:11;1.83;;;0.80;;
16075;SDS011;8142;48.242;11.644;2022-09-09T16:40:37;2.23;;;0.90;;
16075;SDS011;8142;48.242;11.644;2022-09-09T16:43:03;2.00;;;0.90;;
16075;SDS011;8142;48.242;11.644;2022-09-09T16:45:30;2.90;;;1.07;;
16075;SDS011;8142;48.242;11.644;2022-09-09T16:47:57;0.90;;;0.90;;
16075;SDS011;8142;48.242;11.644;2022-09-09T16:50:24;2.30;;;0.87;;
16075;SDS011;8142;48.242;11.644;2022-09-09T16:52:53;2.57;;;1.10;;
16075;SDS011;8142;48.242;11.644;2022-09-09T16:55:19;2.50;;;0.90;;
16075;SDS011;8142;48.242;11.644;2022-09-09T16:57:49;2.20;;;1.00;;
16075;SDS011;8142;48.242;11.644;2022-09-09T17:00:15;2.07;;;0.90;;
16075;SDS011;8142;48.242;11.644;2022-09-09T17:02:44;1.93;;;1.00;;
16075;SDS011;8142;48.242;11.644;2022-09-09T17:05:10;1.80;;;0.97;;
16075;SDS011;8142;48.242;11.644;2022-09-09T17:07:37;0.80;;;0.80;;
16075;SDS011;8142;48.242;11.644;2022-09-09T17:10:04;1.57;;;1.10;;
16075;SDS011;8142;48.242;11.644;2022-09-09T17:12:31;0.70;;;0.70;;
16075;SDS011;8142;48.242;11.644;2022-09-09T17:14:57;1.60;;;0.90;;
16075;SDS011;8142;48.242;11.644;2022-09-09T17:17:25;3.07;;;0.97;;
16075;SDS011;8142;48.242;11.644;2022-09-09T17:19:52;1.30;;;0.90;;
16075;SDS011;8142;48.242;11.644;2022-09-09T17:22:18;1.80;;;0.80;;
16075;SDS011;8142;48.242;11.644;2022-09-09T17:24:45;1.87;;;0.83;;
16075;SDS011;8142;48.242;11.644;2022-09-09T17:27:11;1.40;;;0.67;;
16075;SDS011;8142;48.242;11.644;2022-09-09T17:29:38;1.30;;;1.10;;
16075;SDS011;8142;48.242;11.644;2022-09-09T17:32:04;1.40;;;0.83;;
16075;SDS011;8142;48.242;11.644;2022-09-09T17:34:32;0.80;;;0.80;;
16075;SDS011;8142;48.242;11.644;2022-09-09T17:36:59;3.40;;;1.10;;
16075;SDS011;8142;48.242;11.644;2022-09-09T17:39:25;0.77;;;0.70;;